sensor_id;sensor_type;location;lat;lon;timestamp;P1;durP1;ratioP1;P2;durP2;ratioP2
23712;SDS011;12035;49.978;8.298;2023-05-10T00:03:50;0.40;;;0.10;;
23712;SDS011;12035;49.978;8.298;2023-05-10T00:08:47;1.88;;;0.50;;
23712;SDS011;12035;49.978;8.298;2023-05-10T00:13:44;3.10;;;0.10;;
23712;SDS011;12035;49.978;8.298;2023-05-10T00:18:42;0.28;;;0.20;;
23712;SDS011;12035;49.978;8.298;2023-05-10T00:23:39;0.57;;;0.20;;
23712;SDS011;12035;49.978;8.298;2023-05-10T00:28:36;0.20;;;0.20;;
23712;SDS011;12035;49.978;8.298;2023-05-10T00:33:33;0.73;;;0.25;;
23712;SDS011;12035;49.978;8.298;2023-05-10T00:38:31;0.17;;;0.17;;
23712;SDS011;12035;49.978;8.298;2023-05-10T00:43:29;0.35;;;0.20;;
23712;SDS011;12035;49.978;8.298;2023-05-10T00:48:26;0.15;;;0.10;;
23712;SDS011;12035;49.978;8.298;2023-05-10T00:53:23;0.30;;;0.17;;
23712;SDS011;12035;49.978;8.298;2023-05-10T00:58:22;0.82;;;0.50;;
23712;SDS011;12035;49.978;8.298;2023-05-10T01:03:23;1.23;;;0.20;;
23712;SDS011;12035;49.978;8.298;2023-05-10T01:08:20;0.35;;;0.20;;
23712;SDS011;12035;49.978;8.298;2023-05-10T01:13:18;0.35;;;0.30;;
23712;SDS011;12035;49.978;8.298;2023-05-10T01:18:27;0.60;;;0.20;;
23712;SDS011;12035;49.978;8.298;2023-05-10T01:23:31;0.55;;;0.20;;
23712;SDS011;12035;49.978;8.298;2023-05-10T01:34:17;0.38;;;0.20;;
23712;SDS011;12035;49.978;8.298;2023-05-10T01:39:23;0.43;;;0.10;;
23712;SDS011;12035;49.978;8.298;2023-05-10T01:44:28;0.60;;;0.20;;
23712;SDS011;12035;49.978;8.298;2023-05-10T01:49:34;0.63;;;0.20;;
23712;SDS011;12035;49.978;8.298;2023-05-10T01:54:37;1.70;;;0.30;;
23712;SDS011;12035;49.978;8.298;2023-05-10T01:59:39;0.10;;;0.10;;
23712;SDS011;12035;49.978;8.298;2023-05-10T02:04:40;1.58;;;0.30;;
23712;SDS011;12035;49.978;8.298;2023-05-10T02:09:39;1.17;;;0.40;;
23712;SDS011;12035;49.978;8.298;2023-05-10T02:14:38;0.65;;;0.30;;
23712;SDS011;12035;49.978;8.298;2023-05-10T02:19:38;0.50;;;0.30;;
23712;SDS011;12035;49.978;8.298;2023-05-10T02:24:38;0.68;;;0.30;;
23712;SDS011;12035;49.978;8.298;2023-05-10T02:29:36;3.42;;;0.40;;
23712;SDS011;12035;49.978;8.298;2023-05-10T02:34:33;1.15;;;0.30;;
23712;SDS011;12035;49.978;8.298;2023-05-10T02:39:32;1.60;;;0.22;;
23712;SDS011;12035;49.978;8.298;2023-05-10T02:44:29;1.27;;;0.30;;
23712;SDS011;12035;49.978;8.298;2023-05-10T02:49:27;0.32;;;0.20;;
23712;SDS011;12035;49.978;8.298;2023-05-10T02:54:26;1.63;;;0.30;;
23712;SDS011;12035;49.978;8.298;2023-05-10T02:59:29;0.25;;;0.20;;
23712;SDS011;12035;49.978;8.298;2023-05-10T03:04:27;0.47;;;0.40;;
23712;SDS011;12035;49.978;8.298;2023-05-10T03:09:24;1.38;;;0.60;;
23712;SDS011;12035;49.978;8.298;2023-05-10T03:14:23;3.65;;;0.40;;
23712;SDS011;12035;49.978;8.298;2023-05-10T03:19:36;1.98;;;0.30;;
23712;SDS011;12035;49.978;8.298;2023-05-10T03:24:40;0.57;;;0.30;;
23712;SDS011;12035;49.978;8.298;2023-05-10T03:29:40;0.93;;;0.40;;
23712;SDS011;12035;49.978;8.298;2023-05-10T03:34:41;1.90;;;0.40;;
23712;SDS011;12035;49.978;8.298;2023-05-10T03:39:38;0.63;;;0.30;;
23712;SDS011;12035;49.978;8.298;2023-05-10T03:44:35;1.00;;;0.40;;
23712;SDS011;12035;49.978;8.298;2023-05-10T03:49:34;2.25;;;0.45;;
23712;SDS011;12035;49.978;8.298;2023-05-10T03:54:31;4.38;;;1.23;;
23712;SDS011;12035;49.978;8.298;2023-05-10T03:59:28;0.50;;;0.40;;
23712;SDS011;12035;49.978;8.298;2023-05-10T04:04:25;0.68;;;0.50;;
23712;SDS011;12035;49.978;8.298;2023-05-10T04:14:20;1.05;;;0.50;;
23712;SDS011;12035;49.978;8.298;2023-05-10T04:19:17;1.95;;;0.60;;
23712;SDS011;12035;49.978;8.298;2023-05-10T04:24:14;1.67;;;0.50;;
23712;SDS011;12035;49.978;8.298;2023-05-10T04:29:13;1.05;;;0.60;;
23712;SDS011;12035;49.978;8.298;2023-05-10T04:34:10;0.68;;;0.47;;
23712;SDS011;12035;49.978;8.298;2023-05-10T04:39:07;0.98;;;0.65;;
23712;SDS011;12035;49.978;8.298;2023-05-10T04:44:04;1.27;;;0.70;;
23712;SDS011;12035;49.978;8.298;2023-05-10T04:49:03;1.15;;;0.75;;
23712;SDS011;12035;49.978;8.298;2023-05-10T04:54:00;1.00;;;0.60;;
23712;SDS011;12035;49.978;8.298;2023-05-10T04:59:00;5.53;;;1.30;;
23712;SDS011;12035;49.978;8.298;2023-05-10T05:03:57;2.13;;;0.88;;
23712;SDS011;12035;49.978;8.298;2023-05-10T05:08:56;2.50;;;0.95;;
23712;SDS011;12035;49.978;8.298;2023-05-10T05:13:53;2.28;;;0.80;;
23712;SDS011;12035;49.978;8.298;2023-05-10T05:18:49;1.70;;;0.73;;
23712;SDS011;12035;49.978;8.298;2023-05-10T05:23:47;2.50;;;1.00;;
23712;SDS011;12035;49.978;8.298;2023-05-10T05:28:45;3.80;;;1.00;;
23712;SDS011;12035;49.978;8.298;2023-05-10T05:33:43;2.33;;;1.05;;
23712;SDS011;12035;49.978;8.298;2023-05-10T05:38:40;1.77;;;0.90;;
23712;SDS011;12035;49.978;8.298;2023-05-10T05:43:38;3.08;;;1.25;;
23712;SDS011;12035;49.978;8.298;2023-05-10T05:48:36;3.50;;;0.82;;
23712;SDS011;12035;49.978;8.298;2023-05-10T05:53:33;2.40;;;1.10;;
23712;SDS011;12035;49.978;8.298;2023-05-10T05:58:30;3.30;;;1.20;;
23712;SDS011;12035;49.978;8.298;2023-05-10T06:03:27;2.83;;;0.85;;
23712;SDS011;12035;49.978;8.298;2023-05-10T06:08:25;4.30;;;1.20;;
23712;SDS011;12035;49.978;8.298;2023-05-10T06:13:22;2.10;;;1.08;;
23712;SDS011;12035;49.978;8.298;2023-05-10T06:18:19;1.65;;;0.93;;
23712;SDS011;12035;49.978;8.298;2023-05-10T06:23:16;2.72;;;1.05;;
23712;SDS011;12035;49.978;8.298;2023-05-10T06:28:15;2.80;;;0.90;;
23712;SDS011;12035;49.978;8.298;2023-05-10T06:33:12;2.00;;;0.75;;
23712;SDS011;12035;49.978;8.298;2023-05-10T06:38:09;2.28;;;1.13;;
23712;SDS011;12035;49.978;8.298;2023-05-10T06:43:06;2.58;;;1.05;;
23712;SDS011;12035;49.978;8.298;2023-05-10T06:48:04;2.65;;;0.93;;
23712;SDS011;12035;49.978;8.298;2023-05-10T06:53:01;5.55;;;1.10;;
23712;SDS011;12035;49.978;8.298;2023-05-10T06:57:58;3.25;;;1.00;;
23712;SDS011;12035;49.978;8.298;2023-05-10T07:02:55;2.40;;;0.90;;
23712;SDS011;12035;49.978;8.298;2023-05-10T07:07:54;2.72;;;0.95;;
23712;SDS011;12035;49.978;8.298;2023-05-10T07:12:51;6.85;;;1.27;;
23712;SDS011;12035;49.978;8.298;2023-05-10T07:17:48;2.63;;;1.17;;
23712;SDS011;12035;49.978;8.298;2023-05-10T07:22:46;5.43;;;1.20;;
23712;SDS011;12035;49.978;8.298;2023-05-10T07:27:45;3.28;;;1.10;;
23712;SDS011;12035;49.978;8.298;2023-05-10T07:32:43;2.22;;;1.10;;
23712;SDS011;12035;49.978;8.298;2023-05-10T07:37:40;3.03;;;0.93;;
23712;SDS011;12035;49.978;8.298;2023-05-10T07:42:37;4.43;;;1.00;;
23712;SDS011;12035;49.978;8.298;2023-05-10T07:47:36;2.13;;;0.95;;
23712;SDS011;12035;49.978;8.298;2023-05-10T07:52:32;2.50;;;0.93;;
23712;SDS011;12035;49.978;8.298;2023-05-10T07:57:29;3.28;;;1.10;;
23712;SDS011;12035;49.978;8.298;2023-05-10T08:02:26;1.23;;;0.77;;
23712;SDS011;12035;49.978;8.298;2023-05-10T08:07:25;2.63;;;0.80;;
23712;SDS011;12035;49.978;8.298;2023-05-10T08:12:22;2.80;;;0.90;;
23712;SDS011;12035;49.978;8.298;2023-05-10T08:17:19;4.20;;;0.90;;
23712;SDS011;12035;49.978;8.298;2023-05-10T08:22:16;2.03;;;0.88;;
23712;SDS011;12035;49.978;8.298;2023-05-10T08:27:15;4.05;;;1.10;;
23712;SDS011;12035;49.978;8.298;2023-05-10T08:32:12;3.70;;;1.23;;
23712;SDS011;12035;49.978;8.298;2023-05-10T08:37:09;2.10;;;1.10;;
23712;SDS011;12035;49.978;8.298;2023-05-10T08:42:08;3.22;;;1.15;;
23712;SDS011;12035;49.978;8.298;2023-05-10T08:47:07;4.65;;;1.10;;
23712;SDS011;12035;49.978;8.298;2023-05-10T08:52:06;2.22;;;0.85;;
23712;SDS011;12035;49.978;8.298;2023-05-10T08:57:04;4.25;;;1.17;;
23712;SDS011;12035;49.978;8.298;2023-05-10T09:02:01;2.03;;;0.77;;
23712;SDS011;12035;49.978;8.298;2023-05-10T09:07:02;2.05;;;0.80;;
23712;SDS011;12035;49.978;8.298;2023-05-10T09:12:00;1.52;;;0.90;;
23712;SDS011;12035;49.978;8.298;2023-05-10T09:16:57;2.40;;;0.90;;
23712;SDS011;12035;49.978;8.298;2023-05-10T09:21:54;3.22;;;0.85;;
23712;SDS011;12035;49.978;8.298;2023-05-10T09:26:52;2.63;;;0.73;;
23712;SDS011;12035;49.978;8.298;2023-05-10T09:31:50;2.88;;;0.90;;
23712;SDS011;12035;49.978;8.298;2023-05-10T09:36:53;1.02;;;0.50;;
23712;SDS011;12035;49.978;8.298;2023-05-10T09:41:53;1.10;;;0.60;;
23712;SDS011;12035;49.978;8.298;2023-05-10T09:46:51;1.02;;;0.38;;
23712;SDS011;12035;49.978;8.298;2023-05-10T09:51:57;0.45;;;0.40;;
23712;SDS011;12035;49.978;8.298;2023-05-10T09:56:59;1.35;;;0.50;;
23712;SDS011;12035;49.978;8.298;2023-05-10T10:01:56;0.75;;;0.43;;
23712;SDS011;12035;49.978;8.298;2023-05-10T10:07:01;1.70;;;0.40;;
23712;SDS011;12035;49.978;8.298;2023-05-10T10:12:01;2.08;;;0.50;;
23712;SDS011;12035;49.978;8.298;2023-05-10T10:17:00;3.13;;;0.40;;
23712;SDS011;12035;49.978;8.298;2023-05-10T10:21:57;1.08;;;0.30;;
23712;SDS011;12035;49.978;8.298;2023-05-10T10:26:55;1.45;;;0.40;;
23712;SDS011;12035;49.978;8.298;2023-05-10T10:32:03;0.50;;;0.30;;
23712;SDS011;12035;49.978;8.298;2023-05-10T10:37:14;1.30;;;0.50;;
23712;SDS011;12035;49.978;8.298;2023-05-10T10:42:12;2.47;;;0.40;;
23712;SDS011;12035;49.978;8.298;2023-05-10T10:47:20;0.90;;;0.40;;
23712;SDS011;12035;49.978;8.298;2023-05-10T10:52:20;2.20;;;0.50;;
23712;SDS011;12035;49.978;8.298;2023-05-10T10:57:24;0.85;;;0.60;;
23712;SDS011;12035;49.978;8.298;2023-05-10T11:02:39;0.95;;;0.40;;
23712;SDS011;12035;49.978;8.298;2023-05-10T11:07:50;1.27;;;0.50;;
23712;SDS011;12035;49.978;8.298;2023-05-10T11:12:55;1.23;;;0.50;;
23712;SDS011;12035;49.978;8.298;2023-05-10T11:17:56;2.58;;;0.60;;
23712;SDS011;12035;49.978;8.298;2023-05-10T11:22:54;0.73;;;0.38;;
23712;SDS011;12035;49.978;8.298;2023-05-10T11:27:51;0.75;;;0.50;;
23712;SDS011;12035;49.978;8.298;2023-05-10T11:32:49;1.00;;;0.30;;
23712;SDS011;12035;49.978;8.298;2023-05-10T11:37:47;4.70;;;0.40;;
23712;SDS011;12035;49.978;8.298;2023-05-10T11:42:45;0.55;;;0.35;;
23712;SDS011;12035;49.978;8.298;2023-05-10T11:47:43;0.40;;;0.40;;
23712;SDS011;12035;49.978;8.298;2023-05-10T11:52:40;0.30;;;0.30;;
23712;SDS011;12035;49.978;8.298;2023-05-10T11:57:37;1.30;;;0.40;;
23712;SDS011;12035;49.978;8.298;2023-05-10T12:02:36;0.45;;;0.30;;
23712;SDS011;12035;49.978;8.298;2023-05-10T12:07:35;1.20;;;0.32;;
23712;SDS011;12035;49.978;8.298;2023-05-10T12:12:36;0.85;;;0.50;;
23712;SDS011;12035;49.978;8.298;2023-05-10T12:17:34;1.67;;;0.50;;
23712;SDS011;12035;49.978;8.298;2023-05-10T12:22:36;1.27;;;0.50;;
23712;SDS011;12035;49.978;8.298;2023-05-10T12:27:33;0.95;;;0.40;;
23712;SDS011;12035;49.978;8.298;2023-05-10T12:32:37;1.73;;;0.60;;
23712;SDS011;12035;49.978;8.298;2023-05-10T12:37:37;0.73;;;0.40;;
23712;SDS011;12035;49.978;8.298;2023-05-10T12:42:34;1.38;;;0.40;;
23712;SDS011;12035;49.978;8.298;2023-05-10T12:47:32;2.65;;;0.50;;
23712;SDS011;12035;49.978;8.298;2023-05-10T12:52:30;2.95;;;0.70;;
23712;SDS011;12035;49.978;8.298;2023-05-10T12:57:29;0.57;;;0.30;;
23712;SDS011;12035;49.978;8.298;2023-05-10T13:02:26;1.88;;;0.70;;
23712;SDS011;12035;49.978;8.298;2023-05-10T13:07:24;1.20;;;0.50;;
23712;SDS011;12035;49.978;8.298;2023-05-10T13:12:24;1.98;;;0.70;;
23712;SDS011;12035;49.978;8.298;2023-05-10T13:17:23;0.68;;;0.40;;
23712;SDS011;12035;49.978;8.298;2023-05-10T13:22:21;0.98;;;0.47;;
23712;SDS011;12035;49.978;8.298;2023-05-10T13:27:18;1.40;;;0.52;;
23712;SDS011;12035;49.978;8.298;2023-05-10T13:32:15;1.42;;;0.55;;
23712;SDS011;12035;49.978;8.298;2023-05-10T13:37:15;1.95;;;0.65;;
23712;SDS011;12035;49.978;8.298;2023-05-10T13:42:12;3.35;;;0.52;;
23712;SDS011;12035;49.978;8.298;2023-05-10T13:47:09;2.50;;;0.40;;
23712;SDS011;12035;49.978;8.298;2023-05-10T13:52:06;1.48;;;0.60;;
23712;SDS011;12035;49.978;8.298;2023-05-10T13:57:06;1.77;;;0.57;;
23712;SDS011;12035;49.978;8.298;2023-05-10T14:02:04;0.98;;;0.60;;
23712;SDS011;12035;49.978;8.298;2023-05-10T14:07:01;2.28;;;0.60;;
23712;SDS011;12035;49.978;8.298;2023-05-10T14:11:58;1.35;;;0.50;;
23712;SDS011;12035;49.978;8.298;2023-05-10T14:16:56;1.15;;;0.40;;
23712;SDS011;12035;49.978;8.298;2023-05-10T14:21:54;3.60;;;0.50;;
23712;SDS011;12035;49.978;8.298;2023-05-10T14:26:51;6.07;;;0.40;;
23712;SDS011;12035;49.978;8.298;2023-05-10T14:31:49;2.95;;;0.50;;
23712;SDS011;12035;49.978;8.298;2023-05-10T14:36:47;1.45;;;0.52;;
23712;SDS011;12035;49.978;8.298;2023-05-10T14:41:44;1.10;;;0.50;;
23712;SDS011;12035;49.978;8.298;2023-05-10T14:46:42;2.10;;;0.50;;
23712;SDS011;12035;49.978;8.298;2023-05-10T14:51:39;2.75;;;0.65;;
23712;SDS011;12035;49.978;8.298;2023-05-10T14:56:37;3.92;;;0.70;;
23712;SDS011;12035;49.978;8.298;2023-05-10T15:01:36;4.97;;;1.15;;
23712;SDS011;12035;49.978;8.298;2023-05-10T15:06:34;0.95;;;0.40;;
23712;SDS011;12035;49.978;8.298;2023-05-10T15:11:31;2.15;;;0.50;;
23712;SDS011;12035;49.978;8.298;2023-05-10T15:16:30;2.28;;;0.75;;
23712;SDS011;12035;49.978;8.298;2023-05-10T15:21:27;2.60;;;0.60;;
23712;SDS011;12035;49.978;8.298;2023-05-10T15:26:30;2.75;;;0.85;;
23712;SDS011;12035;49.978;8.298;2023-05-10T15:31:27;1.95;;;0.77;;
23712;SDS011;12035;49.978;8.298;2023-05-10T15:36:25;1.77;;;0.70;;
23712;SDS011;12035;49.978;8.298;2023-05-10T15:41:23;3.10;;;0.60;;
23712;SDS011;12035;49.978;8.298;2023-05-10T15:46:20;1.25;;;0.55;;
23712;SDS011;12035;49.978;8.298;2023-05-10T15:51:18;4.10;;;0.73;;
23712;SDS011;12035;49.978;8.298;2023-05-10T15:56:16;2.05;;;0.52;;
23712;SDS011;12035;49.978;8.298;2023-05-10T16:01:12;1.67;;;0.70;;
23712;SDS011;12035;49.978;8.298;2023-05-10T16:06:10;3.22;;;0.70;;
23712;SDS011;12035;49.978;8.298;2023-05-10T16:11:09;1.23;;;0.60;;
23712;SDS011;12035;49.978;8.298;2023-05-10T16:16:06;1.58;;;0.80;;
23712;SDS011;12035;49.978;8.298;2023-05-10T16:21:03;3.28;;;1.00;;
23712;SDS011;12035;49.978;8.298;2023-05-10T16:26:00;2.97;;;1.08;;
23712;SDS011;12035;49.978;8.298;2023-05-10T16:30:59;6.30;;;1.50;;
23712;SDS011;12035;49.978;8.298;2023-05-10T16:35:56;5.45;;;2.03;;
23712;SDS011;12035;49.978;8.298;2023-05-10T16:40:53;4.43;;;2.35;;
23712;SDS011;12035;49.978;8.298;2023-05-10T16:45:51;2.90;;;1.63;;
23712;SDS011;12035;49.978;8.298;2023-05-10T16:50:49;7.07;;;1.92;;
23712;SDS011;12035;49.978;8.298;2023-05-10T16:55:47;4.70;;;1.77;;
23712;SDS011;12035;49.978;8.298;2023-05-10T17:00:44;3.22;;;1.65;;
23712;SDS011;12035;49.978;8.298;2023-05-10T17:05:41;4.18;;;1.48;;
23712;SDS011;12035;49.978;8.298;2023-05-10T17:10:39;1.33;;;0.93;;
23712;SDS011;12035;49.978;8.298;2023-05-10T17:15:36;1.70;;;0.80;;
23712;SDS011;12035;49.978;8.298;2023-05-10T17:20:34;1.73;;;0.70;;
23712;SDS011;12035;49.978;8.298;2023-05-10T17:25:31;1.30;;;0.50;;
23712;SDS011;12035;49.978;8.298;2023-05-10T17:30:31;1.55;;;0.50;;
23712;SDS011;12035;49.978;8.298;2023-05-10T17:35:28;2.97;;;0.80;;
23712;SDS011;12035;49.978;8.298;2023-05-10T17:40:25;2.22;;;0.52;;
23712;SDS011;12035;49.978;8.298;2023-05-10T17:45:22;0.95;;;0.50;;
23712;SDS011;12035;49.978;8.298;2023-05-10T17:50:21;1.13;;;0.50;;
23712;SDS011;12035;49.978;8.298;2023-05-10T17:55:21;1.00;;;0.40;;
23712;SDS011;12035;49.978;8.298;2023-05-10T18:00:19;1.27;;;0.60;;
23712;SDS011;12035;49.978;8.298;2023-05-10T18:05:16;1.73;;;0.52;;
23712;SDS011;12035;49.978;8.298;2023-05-10T18:10:14;1.75;;;0.50;;
23712;SDS011;12035;49.978;8.298;2023-05-10T18:15:11;0.82;;;0.50;;
23712;SDS011;12035;49.978;8.298;2023-05-10T18:20:09;2.47;;;0.50;;
23712;SDS011;12035;49.978;8.298;2023-05-10T18:25:07;0.98;;;0.40;;
23712;SDS011;12035;49.978;8.298;2023-05-10T18:30:07;2.45;;;0.60;;
23712;SDS011;12035;49.978;8.298;2023-05-10T18:35:06;0.77;;;0.40;;
23712;SDS011;12035;49.978;8.298;2023-05-10T18:40:05;1.33;;;0.50;;
23712;SDS011;12035;49.978;8.298;2023-05-10T18:45:08;1.80;;;0.60;;
23712;SDS011;12035;49.978;8.298;2023-05-10T18:50:06;0.75;;;0.35;;
23712;SDS011;12035;49.978;8.298;2023-05-10T18:55:04;0.77;;;0.40;;
23712;SDS011;12035;49.978;8.298;2023-05-10T19:00:02;1.45;;;0.50;;
23712;SDS011;12035;49.978;8.298;2023-05-10T19:05:04;1.38;;;0.50;;
23712;SDS011;12035;49.978;8.298;2023-05-10T19:10:02;2.42;;;0.80;;
23712;SDS011;12035;49.978;8.298;2023-05-10T19:15:00;1.15;;;0.43;;
23712;SDS011;12035;49.978;8.298;2023-05-10T19:19:57;1.55;;;0.63;;
23712;SDS011;12035;49.978;8.298;2023-05-10T19:24:55;2.17;;;0.70;;
23712;SDS011;12035;49.978;8.298;2023-05-10T19:29:52;1.48;;;0.50;;
23712;SDS011;12035;49.978;8.298;2023-05-10T19:34:49;2.08;;;0.40;;
23712;SDS011;12035;49.978;8.298;2023-05-10T19:39:46;0.88;;;0.52;;
23712;SDS011;12035;49.978;8.298;2023-05-10T19:44:45;1.45;;;0.50;;
23712;SDS011;12035;49.978;8.298;2023-05-10T19:49:42;0.95;;;0.50;;
23712;SDS011;12035;49.978;8.298;2023-05-10T19:54:39;2.83;;;0.80;;
23712;SDS011;12035;49.978;8.298;2023-05-10T19:59:36;1.13;;;0.50;;
23712;SDS011;12035;49.978;8.298;2023-05-10T20:04:34;1.52;;;0.70;;
23712;SDS011;12035;49.978;8.298;2023-05-10T20:09:31;2.10;;;0.65;;
23712;SDS011;12035;49.978;8.298;2023-05-10T20:14:28;0.68;;;0.40;;
23712;SDS011;12035;49.978;8.298;2023-05-10T20:19:25;0.50;;;0.30;;
23712;SDS011;12035;49.978;8.298;2023-05-10T20:24:24;1.45;;;0.50;;
23712;SDS011;12035;49.978;8.298;2023-05-10T20:29:21;1.88;;;0.57;;
23712;SDS011;12035;49.978;8.298;2023-05-10T20:34:18;0.60;;;0.40;;
23712;SDS011;12035;49.978;8.298;2023-05-10T20:39:15;2.70;;;0.70;;
23712;SDS011;12035;49.978;8.298;2023-05-10T20:44:14;1.25;;;0.50;;
23712;SDS011;12035;49.978;8.298;2023-05-10T20:49:11;1.05;;;0.50;;
23712;SDS011;12035;49.978;8.298;2023-05-10T20:54:08;1.35;;;0.52;;
23712;SDS011;12035;49.978;8.298;2023-05-10T20:59:05;1.15;;;0.47;;
23712;SDS011;12035;49.978;8.298;2023-05-10T21:04:03;1.08;;;0.40;;
23712;SDS011;12035;49.978;8.298;2023-05-10T21:09:00;0.80;;;0.40;;
23712;SDS011;12035;49.978;8.298;2023-05-10T21:13:57;2.10;;;0.65;;
23712;SDS011;12035;49.978;8.298;2023-05-10T21:18:54;1.13;;;0.52;;
23712;SDS011;12035;49.978;8.298;2023-05-10T21:23:52;3.17;;;0.68;;
23712;SDS011;12035;49.978;8.298;2023-05-10T21:28:49;1.98;;;0.60;;
23712;SDS011;12035;49.978;8.298;2023-05-10T21:33:46;1.08;;;0.50;;
23712;SDS011;12035;49.978;8.298;2023-05-10T21:38:43;2.00;;;0.60;;
23712;SDS011;12035;49.978;8.298;2023-05-10T21:43:42;0.75;;;0.40;;
23712;SDS011;12035;49.978;8.298;2023-05-10T21:48:39;1.15;;;0.50;;
23712;SDS011;12035;49.978;8.298;2023-05-10T21:53:36;1.27;;;0.40;;
23712;SDS011;12035;49.978;8.298;2023-05-10T21:58:34;0.73;;;0.45;;
23712;SDS011;12035;49.978;8.298;2023-05-10T22:03:32;0.50;;;0.50;;
23712;SDS011;12035;49.978;8.298;2023-05-10T22:08:30;1.10;;;0.50;;
23712;SDS011;12035;49.978;8.298;2023-05-10T22:13:27;1.02;;;0.50;;
23712;SDS011;12035;49.978;8.298;2023-05-10T22:18:25;1.50;;;0.70;;
23712;SDS011;12035;49.978;8.298;2023-05-10T22:23:23;1.20;;;0.47;;
23712;SDS011;12035;49.978;8.298;2023-05-10T22:28:20;1.38;;;0.65;;
23712;SDS011;12035;49.978;8.298;2023-05-10T22:38:13;0.97;;;0.53;;
23712;SDS011;12035;49.978;8.298;2023-05-10T22:43:12;2.60;;;0.60;;
23712;SDS011;12035;49.978;8.298;2023-05-10T22:48:09;1.33;;;0.70;;
23712;SDS011;12035;49.978;8.298;2023-05-10T22:53:06;0.80;;;0.50;;
23712;SDS011;12035;49.978;8.298;2023-05-10T23:03:01;1.93;;;0.50;;
23712;SDS011;12035;49.978;8.298;2023-05-10T23:07:58;1.27;;;0.50;;
23712;SDS011;12035;49.978;8.298;2023-05-10T23:12:55;0.47;;;0.40;;
23712;SDS011;12035;49.978;8.298;2023-05-10T23:22:50;1.07;;;0.60;;
23712;SDS011;12035;49.978;8.298;2023-05-10T23:27:47;1.35;;;0.60;;
23712;SDS011;12035;49.978;8.298;2023-05-10T23:32:44;0.52;;;0.40;;
23712;SDS011;12035;49.978;8.298;2023-05-10T23:42:39;1.40;;;0.50;;
23712;SDS011;12035;49.978;8.298;2023-05-10T23:47:36;2.92;;;0.60;;
23712;SDS011;12035;49.978;8.298;2023-05-10T23:52:33;2.03;;;0.50;;
23712;SDS011;12035;49.978;8.298;2023-05-10T23:57:30;0.82;;;0.40;;
